Time;durP1;ratioP1;P1;durP2;ratioP2;P2;SDS_P1;SDS_P2;PMS_P1;PMS_P2;Temp;Humidity;BMP_temperature;BMP_pressure;BME280_temperature;BME280_humidity;BME280_pressure;Samples;Min_cycle;Max_cycle;Signal;HPM_P1;HPM_P2
2023/06/21 00:01:00;;;;;;;10.68;6.60;;;;;;;19.75;100.00;96456.97;4969117;29;20647;-62
2023/06/21 00:03:26;;;;;;;8.57;7.38;;;;;;;19.73;100.00;96458.22;4971243;29;20218;-63
2023/06/21 00:05:54;;;;;;;10.68;6.43;;;;;;;19.73;100.00;96456.34;4969270;29;20250;-60
2023/06/21 00:08:24;;;;;;;10.23;6.82;;;;;;;19.69;100.00;96460.47;4960942;29;20211;-60
2023/06/21 00:10:51;;;;;;;7.40;6.35;;;;;;;19.68;100.00;96458.00;4962278;29;20512;-62
2023/06/21 00:13:18;;;;;;;7.25;6.43;;;;;;;19.66;100.00;96454.69;4967183;29;20238;-61
2023/06/21 00:15:44;;;;;;;10.77;6.47;;;;;;;19.64;100.00;96452.22;4957437;29;20298;-63
2023/06/21 00:18:13;;;;;;;8.98;6.75;;;;;;;19.64;100.00;96451.38;4959185;29;20539;-62
2023/06/21 00:20:39;;;;;;;8.90;6.88;;;;;;;19.65;100.00;96463.78;4963450;29;20238;-61
2023/06/21 00:23:08;;;;;;;7.70;6.60;;;;;;;19.68;100.00;96469.56;4965116;29;20213;-61
2023/06/21 00:25:36;;;;;;;7.72;6.25;;;;;;;19.68;100.00;96474.09;4949579;29;20214;-61
2023/06/21 00:28:02;;;;;;;9.05;6.45;;;;;;;19.64;100.00;96468.31;4956348;29;20676;-61
2023/06/21 00:30:28;;;;;;;8.48;6.57;;;;;;;19.67;100.00;96478.63;4939584;29;20269;-62
2023/06/21 00:32:55;;;;;;;7.78;6.22;;;;;;;19.66;100.00;96482.31;4956703;29;20234;-61
2023/06/21 00:35:22;;;;;;;10.43;6.43;;;;;;;19.65;100.00;96480.69;4956694;29;20206;-61
2023/06/21 00:37:48;;;;;;;9.48;6.35;;;;;;;19.61;100.00;96490.19;4956100;29;20556;-62
2023/06/21 00:40:14;;;;;;;8.25;6.72;;;;;;;19.60;100.00;96485.84;4956035;29;20277;-61
2023/06/21 00:42:42;;;;;;;10.20;6.60;;;;;;;19.59;100.00;96489.53;4949109;29;20202;-61
2023/06/21 00:45:10;;;;;;;11.32;6.10;;;;;;;19.51;100.00;96497.78;4958108;28;20210;-61
2023/06/21 00:47:36;;;;;;;7.85;6.57;;;;;;;19.53;100.00;96502.94;4956449;29;20552;-61
2023/06/21 00:50:03;;;;;;;10.68;6.60;;;;;;;19.52;100.00;96499.41;4955566;28;20212;-61
2023/06/21 00:52:31;;;;;;;10.70;7.10;;;;;;;19.46;100.00;96497.56;4956476;29;20214;-61
2023/06/21 00:54:58;;;;;;;8.52;6.55;;;;;;;19.49;100.00;96499.00;4955759;29;20218;-62
2023/06/21 00:57:25;;;;;;;13.43;6.60;;;;;;;19.51;100.00;96511.19;4956499;28;20253;-61
2023/06/21 00:59:53;;;;;;;10.90;7.15;;;;;;;19.49;100.00;96517.78;4959428;28;20238;-61
2023/06/21 01:02:20;;;;;;;7.75;6.43;;;;;;;19.50;100.00;96516.75;4956633;29;20242;-61
2023/06/21 01:04:49;;;;;;;10.45;6.63;;;;;;;19.48;100.00;96516.97;4963172;29;20206;-61
2023/06/21 01:07:21;;;;;;;9.65;6.93;;;;;;;19.50;100.00;96530.16;4968084;28;20274;-63
2023/06/21 01:10:00;;;;;;;7.55;6.70;;;;;;;19.53;100.00;96525.22;4963545;28;20238;-61
2023/06/21 01:12:37;;;;;;;7.28;6.47;;;;;;;19.57;100.00;96531.84;4958632;29;20238;-61
2023/06/21 01:15:10;;;;;;;10.35;6.68;;;;;;;19.53;100.00;96530.59;4958343;28;20715;-61
2023/06/21 01:17:39;;;;;;;9.68;6.75;;;;;;;19.52;100.00;96520.09;4959216;29;20248;-61
2023/06/21 01:20:13;;;;;;;8.82;6.47;;;;;;;19.52;100.00;96528.94;4958692;29;20222;-61
2023/06/21 01:22:47;;;;;;;8.45;6.68;;;;;;;19.55;100.00;96538.44;4958910;29;20213;-61
2023/06/21 01:25:27;;;;;;;12.65;7.18;;;;;;;19.53;100.00;96543.16;4958622;29;20302;-61
2023/06/21 01:28:01;;;;;;;11.57;6.88;;;;;;;19.55;100.00;96550.00;4947908;29;20207;-61
2023/06/21 01:30:30;;;;;;;9.88;6.97;;;;;;;19.51;100.00;96547.91;4957383;29;20199;-62
2023/06/21 01:32:57;;;;;;;8.10;7.03;;;;;;;19.51;100.00;96553.28;4958660;29;20293;-64
2023/06/21 01:35:24;;;;;;;9.30;6.75;;;;;;;19.61;100.00;96559.94;4958084;29;20207;-62
2023/06/21 01:37:51;;;;;;;8.63;6.63;;;;;;;19.58;100.00;96560.34;4945972;29;20207;-62
2023/06/21 01:40:17;;;;;;;9.75;6.55;;;;;;;19.59;100.00;96551.22;4945290;29;20225;-63
2023/06/21 01:42:44;;;;;;;9.98;6.93;;;;;;;19.62;100.00;96566.13;4958144;29;20658;-61
2023/06/21 01:45:11;;;;;;;9.88;7.13;;;;;;;19.63;100.00;96563.22;4958780;28;20203;-61
2023/06/21 01:47:39;;;;;;;9.00;6.50;;;;;;;19.68;100.00;96566.13;4953128;29;20225;-61
2023/06/21 01:50:08;;;;;;;9.20;6.40;;;;;;;19.67;100.00;96572.53;4958100;29;20241;-61
2023/06/21 01:52:35;;;;;;;12.05;6.75;;;;;;;19.68;100.00;96570.69;4958240;29;20210;-60
2023/06/21 01:55:02;;;;;;;9.68;6.55;;;;;;;19.69;100.00;96567.81;4955495;29;20559;-62
2023/06/21 01:57:30;;;;;;;8.63;7.32;;;;;;;19.72;100.00;96577.28;4949893;29;20215;-61
2023/06/21 01:59:59;;;;;;;11.40;7.00;;;;;;;19.73;100.00;96574.41;4957485;29;20214;-62
2023/06/21 02:02:25;;;;;;;9.45;7.00;;;;;;;19.69;100.00;96581.22;4957946;29;20262;-62
2023/06/21 02:04:53;;;;;;;7.63;6.93;;;;;;;19.70;100.00;96580.16;4957823;29;20225;-62
2023/06/21 02:07:20;;;;;;;12.30;6.95;;;;;;;19.73;100.00;96579.75;4957687;29;20221;-62
2023/06/21 02:09:47;;;;;;;10.45;7.03;;;;;;;19.73;100.00;96581.66;4957405;28;20214;-61
2023/06/21 02:12:13;;;;;;;7.95;7.07;;;;;;;19.75;100.00;96588.47;4957088;29;20243;-62
2023/06/21 02:14:40;;;;;;;8.13;7.22;;;;;;;19.74;100.00;96592.16;4957242;29;20676;-61
2023/06/21 02:17:06;;;;;;;8.43;6.65;;;;;;;19.77;100.00;96588.22;4961277;29;20210;-61
2023/06/21 02:19:32;;;;;;;7.60;6.75;;;;;;;19.77;100.00;96596.28;4961723;29;20266;-63
2023/06/21 02:22:02;;;;;;;11.02;6.93;;;;;;;19.79;100.00;96594.25;4959713;29;20616;-61
2023/06/21 02:24:29;;;;;;;10.93;6.95;;;;;;;19.76;100.00;96592.81;4958385;29;20206;-62
2023/06/21 02:26:55;;;;;;;9.88;6.93;;;;;;;19.77;100.00;96591.75;4957760;28;20207;-62
2023/06/21 02:29:21;;;;;;;7.95;7.15;;;;;;;19.81;100.00;96592.19;4957854;29;20209;-61
2023/06/21 02:31:48;;;;;;;10.18;8.18;;;;;;;19.83;100.00;96585.59;4953598;28;20210;-61
2023/06/21 02:34:15;;;;;;;8.25;7.10;;;;;;;19.85;100.00;96591.59;4949252;29;20242;-62
2023/06/21 02:36:41;;;;;;;12.20;8.05;;;;;;;19.84;100.00;96595.28;4957696;29;20221;-61
2023/06/21 02:39:09;;;;;;;10.15;8.23;;;;;;;19.79;100.00;96600.44;4958943;29;20214;-61
2023/06/21 02:41:37;;;;;;;7.95;7.07;;;;;;;19.77;100.00;96605.16;4956870;29;20631;-61
2023/06/21 02:44:04;;;;;;;9.20;7.30;;;;;;;19.74;100.00;96610.94;4955915;29;20654;-61
2023/06/21 02:46:30;;;;;;;11.20;8.13;;;;;;;19.73;100.00;96609.28;4958884;28;20220;-62
2023/06/21 02:48:57;;;;;;;13.60;7.60;;;;;;;19.74;100.00;96610.94;4957057;29;20647;-61
2023/06/21 02:51:25;;;;;;;8.93;7.10;;;;;;;19.72;100.00;96604.97;4956958;29;20539;-61
2023/06/21 02:53:51;;;;;;;9.23;7.47;;;;;;;19.71;100.00;96605.97;4940154;29;20671;-62
2023/06/21 02:56:19;;;;;;;14.02;7.47;;;;;;;19.71;100.00;96605.16;4956344;29;20545;-62
2023/06/21 02:58:46;;;;;;;10.00;7.55;;;;;;;19.73;100.00;96601.22;4953865;29;20269;-61
2023/06/21 03:01:13;;;;;;;9.07;7.03;;;;;;;19.70;100.00;96607.00;4956407;29;20215;-62
2023/06/21 03:03:40;;;;;;;9.27;6.80;;;;;;;19.75;100.00;96612.59;4956989;28;20605;-63
2023/06/21 03:06:07;;;;;;;10.13;7.05;;;;;;;19.69;100.00;96605.38;4956868;29;20268;-61
2023/06/21 03:08:33;;;;;;;10.35;7.68;;;;;;;19.63;100.00;96611.50;4957145;29;20552;-61
2023/06/21 03:11:00;;;;;;;10.55;7.00;;;;;;;19.66;100.00;96613.00;4956385;29;20636;-62
2023/06/21 03:13:28;;;;;;;8.20;7.50;;;;;;;19.68;100.00;96622.50;4940938;29;20293;-61
2023/06/21 03:15:54;;;;;;;10.63;7.38;;;;;;;19.73;100.00;96627.25;4937777;29;20211;-61
2023/06/21 03:18:20;;;;;;;8.18;7.22;;;;;;;19.70;100.00;96627.63;4937857;29;20222;-62
2023/06/21 03:20:50;;;;;;;10.10;7.13;;;;;;;19.70;100.00;96636.50;4937532;29;20222;-62
2023/06/21 03:23:17;;;;;;;10.00;7.20;;;;;;;19.71;100.00;96640.03;4946727;29;20222;-62
2023/06/21 03:25:43;;;;;;;13.45;7.25;;;;;;;19.68;100.00;96637.75;4946751;29;20207;-61
2023/06/21 03:28:10;;;;;;;10.35;7.65;;;;;;;19.71;100.00;96640.03;4937141;29;20207;-62
2023/06/21 03:30:37;;;;;;;8.93;7.43;;;;;;;19.71;100.00;96638.19;4942079;29;20207;-61
2023/06/21 03:33:05;;;;;;;9.05;8.02;;;;;;;19.75;100.00;96649.34;4953584;29;20207;-61
2023/06/21 03:35:31;;;;;;;8.00;7.20;;;;;;;19.75;100.00;96646.66;4956416;29;20260;-62
2023/06/21 03:37:58;;;;;;;11.25;7.90;;;;;;;19.73;100.00;96665.63;4956449;29;20233;-63
2023/06/21 03:40:25;;;;;;;7.82;7.05;;;;;;;19.78;100.00;96673.09;4956596;29;20207;-62
2023/06/21 03:42:52;;;;;;;11.52;7.85;;;;;;;19.83;100.00;96665.28;4956097;29;20220;-61
2023/06/21 03:45:18;;;;;;;12.32;8.00;;;;;;;19.83;100.00;96659.91;4964546;28;20325;-62
2023/06/21 03:47:48;;;;;;;11.55;8.02;;;;;;;19.88;100.00;96669.00;4958601;28;20299;-62
2023/06/21 03:50:15;;;;;;;9.32;7.85;;;;;;;19.92;100.00;96679.34;4956355;29;20206;-60
2023/06/21 03:52:41;;;;;;;10.88;8.15;;;;;;;19.95;100.00;96686.97;4955672;29;20671;-62
2023/06/21 03:55:08;;;;;;;9.30;8.00;;;;;;;19.96;100.00;96685.97;4955584;29;20292;-60
2023/06/21 03:57:35;;;;;;;11.50;8.50;;;;;;;19.97;100.00;96685.78;4954367;29;20233;-61
2023/06/21 04:00:02;;;;;;;9.98;7.95;;;;;;;20.01;100.00;96688.88;4955635;29;20683;-62
2023/06/21 04:02:28;;;;;;;9.77;8.13;;;;;;;20.06;100.00;96702.53;4956241;29;20217;-62
2023/06/21 04:04:56;;;;;;;10.73;8.07;;;;;;;20.10;100.00;96695.72;4973569;29;20213;-64
2023/06/21 04:07:23;;;;;;;9.10;7.60;;;;;;;20.15;100.00;96704.03;4974469;29;20244;-61
2023/06/21 04:09:50;;;;;;;8.18;7.18;;;;;;;20.15;100.00;96701.34;4961673;29;20289;-60
2023/06/21 04:12:16;;;;;;;9.50;8.13;;;;;;;20.16;100.00;96702.97;4954815;28;20257;-61
2023/06/21 04:14:42;;;;;;;13.23;7.65;;;;;;;20.20;100.00;96709.59;4953638;29;20282;-60
2023/06/21 04:17:09;;;;;;;10.43;7.78;;;;;;;20.27;100.00;96713.13;4936683;29;20600;-61
2023/06/21 04:19:36;;;;;;;10.85;8.10;;;;;;;20.33;100.00;96717.75;4939598;29;20222;-61
2023/06/21 04:22:04;;;;;;;9.00;8.00;;;;;;;20.37;100.00;96718.19;4937684;29;20550;-62
2023/06/21 04:24:30;;;;;;;9.73;8.00;;;;;;;20.40;100.00;96710.53;4959120;29;20217;-62
2023/06/21 04:26:58;;;;;;;9.80;8.77;;;;;;;20.44;100.00;96721.72;4966750;29;20396;-61
2023/06/21 04:29:26;;;;;;;13.77;8.25;;;;;;;20.48;100.00;96731.00;4951890;29;20207;-61
2023/06/21 04:31:53;;;;;;;11.57;8.32;;;;;;;20.51;100.00;96733.31;4945192;29;20214;-62
2023/06/21 04:34:19;;;;;;;11.30;7.65;;;;;;;20.54;100.00;96728.34;4939198;29;20267;-60
2023/06/21 04:36:47;;;;;;;9.75;8.18;;;;;;;20.57;100.00;96721.72;4940549;29;20648;-61
2023/06/21 04:39:16;;;;;;;13.32;8.18;;;;;;;20.67;100.00;96738.28;4940907;29;20271;-61
2023/06/21 04:41:45;;;;;;;9.57;8.27;;;;;;;20.74;100.00;96741.81;4944663;29;20230;-60
2023/06/21 04:44:12;;;;;;;8.90;7.70;;;;;;;20.81;100.00;96739.97;4946993;29;20211;-61
2023/06/21 04:46:38;;;;;;;8.13;7.32;;;;;;;20.92;100.00;96749.28;4965163;28;20659;-61
2023/06/21 04:49:05;;;;;;;8.70;7.82;;;;;;;21.03;100.00;96744.13;4940449;29;20215;-62
2023/06/21 04:51:31;;;;;;;8.07;7.28;;;;;;;21.16;100.00;96743.34;4948045;29;20211;-62
2023/06/21 04:53:58;;;;;;;10.35;7.82;;;;;;;21.26;100.00;96738.38;4959273;29;20206;-64
2023/06/21 04:56:26;;;;;;;7.82;7.03;;;;;;;21.34;100.00;96738.16;4956056;29;20210;-61
2023/06/21 04:58:53;;;;;;;7.93;7.22;;;;;;;21.43;100.00;96736.94;4956586;29;20222;-61
2023/06/21 05:01:19;;;;;;;8.80;7.93;;;;;;;21.51;100.00;96731.31;4954891;29;20218;-61
2023/06/21 05:03:48;;;;;;;8.60;7.70;;;;;;;21.61;100.00;96737.09;4958823;29;20217;-65
2023/06/21 05:06:14;;;;;;;7.97;7.18;;;;;;;21.72;100.00;96728.38;4958457;28;20210;-60
2023/06/21 05:08:41;;;;;;;9.52;7.78;;;;;;;21.84;100.00;96731.25;4959271;29;20593;-60
2023/06/21 05:11:08;;;;;;;8.88;7.80;;;;;;;21.98;100.00;96726.69;4958961;29;20282;-58
2023/06/21 05:13:36;;;;;;;8.63;7.72;;;;;;;22.11;100.00;96740.09;4950752;29;20214;-59
2023/06/21 05:16:04;;;;;;;8.98;7.93;;;;;;;22.15;100.00;96730.56;4958444;29;20233;-58
2023/06/21 05:18:31;;;;;;;8.55;7.72;;;;;;;22.21;100.00;96727.81;4953903;29;20267;-59
2023/06/21 05:20:57;;;;;;;8.25;7.45;;;;;;;22.22;100.00;96728.66;4957156;29;20210;-58
2023/06/21 05:23:24;;;;;;;9.95;7.80;;;;;;;22.24;100.00;96740.91;4958377;29;20203;-59
2023/06/21 05:25:50;;;;;;;9.82;7.68;;;;;;;22.21;100.00;96744.00;4958723;29;20624;-58
2023/06/21 05:28:17;;;;;;;11.35;8.23;;;;;;;22.17;100.00;96741.97;4959112;29;20537;-58
2023/06/21 05:30:45;;;;;;;8.98;7.30;;;;;;;22.26;100.00;96756.84;4958599;29;20213;-59
2023/06/21 05:33:11;;;;;;;7.78;7.13;;;;;;;22.30;100.00;96750.81;4954492;29;20210;-59
2023/06/21 05:35:38;;;;;;;8.15;7.35;;;;;;;22.33;100.00;96752.25;4956101;29;20234;-58
2023/06/21 05:38:04;;;;;;;8.02;7.32;;;;;;;22.29;100.00;96761.78;4949544;29;20651;-59
2023/06/21 05:40:31;;;;;;;11.27;8.50;;;;;;;22.27;100.00;96761.19;4957929;29;20666;-59
2023/06/21 05:43:01;;;;;;;11.50;7.68;;;;;;;22.23;100.00;96752.72;4953132;29;20218;-58
2023/06/21 05:45:27;;;;;;;11.35;8.10;;;;;;;22.19;100.00;96758.72;4957063;28;20203;-59
2023/06/21 05:47:55;;;;;;;11.48;8.68;;;;;;;22.18;100.00;96765.16;4957975;29;20699;-59
2023/06/21 05:50:22;;;;;;;8.98;7.47;;;;;;;22.22;100.00;96766.38;4958168;29;20221;-59
2023/06/21 05:52:48;;;;;;;8.60;7.70;;;;;;;22.26;100.00;96775.69;4956272;29;20218;-59
2023/06/21 05:55:15;;;;;;;10.23;7.85;;;;;;;22.30;100.00;96775.06;4956423;29;20234;-59
2023/06/21 05:57:42;;;;;;;8.52;7.32;;;;;;;22.36;100.00;96772.53;4958626;29;20206;-59
2023/06/21 06:00:09;;;;;;;12.88;8.57;;;;;;;22.38;100.00;96776.69;4957556;29;20557;-57
2023/06/21 06:02:36;;;;;;;9.88;8.90;;;;;;;22.42;100.00;96775.22;4958547;29;20302;-58
2023/06/21 06:05:04;;;;;;;8.75;7.85;;;;;;;22.49;100.00;96767.94;4958846;29;20210;-59
2023/06/21 06:07:31;;;;;;;11.63;8.55;;;;;;;22.59;100.00;96768.31;4960316;28;20290;-60
2023/06/21 06:09:57;;;;;;;8.70;7.90;;;;;;;22.69;100.00;96774.09;4957981;29;20203;-59
2023/06/21 06:12:23;;;;;;;7.97;7.20;;;;;;;22.80;100.00;96764.50;4957556;29;20250;-58
2023/06/21 06:14:51;;;;;;;8.68;7.80;;;;;;;22.89;100.00;96763.16;4958819;29;20237;-61
2023/06/21 06:17:18;;;;;;;10.32;7.50;;;;;;;23.05;100.00;96768.06;4965268;29;20270;-59
2023/06/21 06:19:44;;;;;;;8.32;7.55;;;;;;;23.18;100.00;96753.63;4950367;29;20221;-58
2023/06/21 06:22:12;;;;;;;11.32;8.93;;;;;;;23.23;100.00;96737.63;4954971;29;20223;-60
2023/06/21 06:24:38;;;;;;;8.20;7.43;;;;;;;23.32;100.00;96741.69;4946987;29;20298;-61
2023/06/21 06:27:06;;;;;;;8.15;7.45;;;;;;;23.56;100.00;96743.59;4957275;29;20214;-60
2023/06/21 06:29:32;;;;;;;8.88;7.80;;;;;;;23.66;100.00;96732.31;4957248;29;20202;-60
2023/06/21 06:31:59;;;;;;;8.98;7.15;;;;;;;23.84;100.00;96728.78;4955548;29;20340;-59
2023/06/21 06:34:25;;;;;;;8.75;7.70;;;;;;;23.95;100.00;96723.44;4957622;29;20203;-60
2023/06/21 06:36:52;;;;;;;7.45;6.80;;;;;;;24.08;100.00;96719.78;4957039;29;20289;-61
2023/06/21 06:39:19;;;;;;;11.10;7.32;;;;;;;24.22;100.00;96715.91;4957493;29;20210;-60
2023/06/21 06:41:46;;;;;;;8.98;7.57;;;;;;;24.28;100.00;96704.19;4957401;29;20213;-59
2023/06/21 06:44:12;;;;;;;8.07;7.07;;;;;;;24.42;100.00;96704.81;4956008;29;20218;-60
2023/06/21 06:46:39;;;;;;;8.43;7.43;;;;;;;24.56;100.00;96693.59;4957011;28;20262;-59
2023/06/21 06:49:05;;;;;;;9.32;7.85;;;;;;;24.66;100.00;96688.47;4947821;29;20218;-60
2023/06/21 06:51:32;;;;;;;8.23;7.28;;;;;;;24.89;98.60;96681.50;4953366;29;20206;-61
2023/06/21 06:53:58;;;;;;;12.30;7.20;;;;;;;25.04;98.46;96673.78;4948825;29;20207;-60
2023/06/21 06:56:26;;;;;;;9.30;7.20;;;;;;;25.19;97.70;96668.72;4954336;28;20242;-59
2023/06/21 06:58:52;;;;;;;7.78;6.97;;;;;;;25.36;98.08;96675.13;4952400;29;20543;-61
2023/06/21 07:01:19;;;;;;;7.97;6.90;;;;;;;25.51;96.44;96689.03;4946614;29;20290;-60
2023/06/21 07:03:46;;;;;;;10.13;7.85;;;;;;;25.47;91.06;96709.47;4947430;29;20225;-60
2023/06/21 07:06:12;;;;;;;7.47;6.78;;;;;;;25.69;91.10;96718.69;4957344;28;20202;-61
2023/06/21 07:08:42;;;;;;;8.00;6.72;;;;;;;25.71;89.81;96726.59;4957624;29;20203;-60
2023/06/21 07:11:09;;;;;;;7.68;6.57;;;;;;;25.83;90.97;96740.13;4958087;29;20202;-60
2023/06/21 07:13:37;;;;;;;8.65;6.75;;;;;;;25.92;91.46;96760.41;4960344;29;20207;-62
2023/06/21 07:16:03;;;;;;;11.95;7.32;;;;;;;25.87;92.19;96768.41;4963425;29;20238;-61
2023/06/21 07:18:33;;;;;;;8.45;7.00;;;;;;;25.80;94.82;96795.59;4963897;29;20211;-59
2023/06/21 07:20:59;;;;;;;8.65;7.13;;;;;;;25.41;90.10;96813.31;4959338;29;20217;-58
2023/06/21 07:23:27;;;;;;;9.95;7.55;;;;;;;25.02;91.73;96830.13;4960950;29;20222;-59
2023/06/21 07:25:53;;;;;;;8.73;7.35;;;;;;;24.72;92.79;96849.03;4959891;29;20695;-60
2023/06/21 07:28:20;;;;;;;9.60;7.07;;;;;;;24.44;93.25;96878.47;4956993;29;20210;-60
2023/06/21 07:30:47;;;;;;;7.78;7.00;;;;;;;24.14;95.43;96925.09;4956163;29;20225;-59
2023/06/21 07:33:14;;;;;;;11.90;8.55;;;;;;;23.82;100.00;96950.47;4957011;29;20218;-60
2023/06/21 07:35:40;;;;;;;10.43;7.57;;;;;;;23.59;100.00;96988.03;4956973;29;20572;-59
2023/06/21 07:38:08;;;;;;;14.98;7.80;;;;;;;22.68;100.00;97015.06;4951204;29;20839;-60
2023/06/21 07:40:34;;;;;;;6.00;4.75;;;;;;;22.21;100.00;96964.91;4956945;29;20246;-60
2023/06/21 07:43:01;;;;;;;7.72;4.43;;;;;;;21.56;100.00;96992.56;4957648;29;20218;-60
2023/06/21 07:45:29;;;;;;;6.03;4.10;;;;;;;21.42;100.00;96969.34;4956924;28;20207;-60
2023/06/21 07:47:57;;;;;;;4.78;3.72;;;;;;;21.27;100.00;96914.88;4957789;28;20210;-60
2023/06/21 07:50:27;;;;;;;6.50;3.45;;;;;;;21.27;100.00;96906.81;4958753;29;20218;-59
2023/06/21 07:52:53;;;;;;;4.63;3.70;;;;;;;21.29;100.00;96883.25;4960647;29;20220;-60
2023/06/21 07:55:22;;;;;;;6.22;4.10;;;;;;;21.24;100.00;96897.28;4958726;29;20698;-60
2023/06/21 07:57:50;;;;;;;8.15;3.72;;;;;;;21.19;100.00;96899.75;4959935;29;20202;-59
2023/06/21 08:00:17;;;;;;;3.88;3.05;;;;;;;21.13;100.00;96880.91;4960378;29;20210;-59
2023/06/21 08:02:45;;;;;;;9.80;3.90;;;;;;;21.08;100.00;96869.91;4964092;29;20190;-61
2023/06/21 08:05:14;;;;;;;3.90;3.60;;;;;;;21.09;100.00;96867.00;4975800;29;20182;-61
2023/06/21 08:07:41;;;;;;;7.78;3.33;;;;;;;21.13;100.00;96864.78;4958744;29;20233;-60
2023/06/21 08:10:09;;;;;;;5.88;3.15;;;;;;;21.19;100.00;96861.25;4980718;29;20206;-60
2023/06/21 08:12:35;;;;;;;4.30;3.30;;;;;;;21.32;100.00;96866.69;4966997;29;20239;-60
2023/06/21 08:15:03;;;;;;;6.60;3.97;;;;;;;21.42;100.00;96860.91;4942643;29;20183;-63
2023/06/21 08:17:31;;;;;;;5.85;3.92;;;;;;;21.65;100.00;96846.00;4958917;29;20217;-59
2023/06/21 08:19:58;;;;;;;5.82;3.67;;;;;;;22.06;100.00;96843.09;4960662;29;20279;-61
2023/06/21 08:22:33;;;;;;;5.13;3.53;;;;;;;22.53;100.00;96844.63;4955368;29;20211;-64
2023/06/21 08:24:59;;;;;;;4.43;3.60;;;;;;;23.08;100.00;96845.03;4939335;29;20207;-60
2023/06/21 08:27:26;;;;;;;3.63;2.90;;;;;;;23.45;100.00;96836.09;4923187;29;20214;-60
2023/06/21 08:29:53;;;;;;;3.20;2.70;;;;;;;23.59;100.00;96840.38;4940876;29;20207;-60
2023/06/21 08:32:20;;;;;;;5.13;2.97;;;;;;;23.89;100.00;96845.06;4941890;29;20207;-59
2023/06/21 08:34:46;;;;;;;5.00;3.40;;;;;;;24.22;100.00;96851.88;4940863;29;20211;-59
2023/06/21 08:37:13;;;;;;;6.05;3.10;;;;;;;24.41;100.00;96852.69;4941750;29;20230;-59
2023/06/21 08:39:43;;;;;;;3.45;3.15;;;;;;;24.59;100.00;96865.38;4941565;29;20226;-60
2023/06/21 08:42:10;;;;;;;3.97;3.00;;;;;;;24.58;100.00;96858.34;4947151;29;20218;-60
2023/06/21 08:44:37;;;;;;;6.90;3.10;;;;;;;24.81;100.00;96849.53;4951413;29;20213;-60
2023/06/21 08:47:06;;;;;;;4.28;2.88;;;;;;;25.02;100.00;96846.34;4957395;29;20211;-60
2023/06/21 08:49:36;;;;;;;2.47;2.28;;;;;;;24.80;100.00;96842.47;4947294;29;20263;-60
2023/06/21 08:52:04;;;;;;;4.18;1.90;;;;;;;24.97;100.00;96843.53;4945203;29;20215;-60
2023/06/21 08:54:31;;;;;;;3.33;1.73;;;;;;;24.82;100.00;96851.19;4942113;29;20210;-61
2023/06/21 08:57:04;;;;;;;2.10;1.90;;;;;;;24.98;100.00;96850.56;4939891;29;20231;-60
2023/06/21 08:59:35;;;;;;;2.30;2.00;;;;;;;25.01;100.00;96863.66;4940439;29;20214;-61
2023/06/21 09:02:13;;;;;;;2.55;1.80;;;;;;;25.43;100.00;96857.25;4940945;29;20211;-60
2023/06/21 09:04:44;;;;;;;1.90;1.55;;;;;;;25.69;100.00;96867.69;4940475;29;20271;-60
2023/06/21 09:07:12;;;;;;;2.15;1.45;;;;;;;25.57;89.92;96861.44;4923760;29;20207;-60
2023/06/21 09:09:40;;;;;;;1.65;1.13;;;;;;;25.66;89.84;96862.75;4940599;29;20230;-60
2023/06/21 09:12:12;;;;;;;1.25;1.05;;;;;;;25.56;90.74;96857.06;4941935;29;20261;-61
2023/06/21 09:14:39;;;;;;;1.85;1.35;;;;;;;25.85;94.74;96866.19;4960063;29;20213;-61
2023/06/21 09:17:07;;;;;;;1.20;1.02;;;;;;;26.03;92.67;96865.28;4959311;29;20230;-60
2023/06/21 09:19:35;;;;;;;2.53;1.83;;;;;;;26.17;94.64;96866.69;4959946;28;20553;-60
2023/06/21 09:22:03;;;;;;;4.72;2.17;;;;;;;26.33;88.41;96876.00;4953613;29;20643;-61
2023/06/21 09:24:31;;;;;;;3.20;2.08;;;;;;;26.29;86.56;96878.38;4943096;29;20211;-62
2023/06/21 09:26:58;;;;;;;2.80;2.05;;;;;;;25.96;88.19;96876.22;4948377;29;20207;-60
2023/06/21 09:29:27;;;;;;;2.50;2.30;;;;;;;26.30;88.94;96888.16;4959859;29;20270;-61
2023/06/21 09:31:53;;;;;;;5.68;2.42;;;;;;;26.19;88.19;96897.94;4961145;28;20736;-62
2023/06/21 09:34:21;;;;;;;3.67;2.50;;;;;;;25.99;89.25;96896.59;4939651;29;20210;-62
2023/06/21 09:36:50;;;;;;;2.80;2.13;;;;;;;25.93;88.27;96902.97;4948033;29;20242;-60
2023/06/21 09:39:17;;;;;;;3.00;2.40;;;;;;;25.98;88.73;96912.03;4959041;29;20202;-62
2023/06/21 09:41:44;;;;;;;2.33;2.13;;;;;;;26.01;86.94;96911.56;4959315;29;20218;-60
2023/06/21 09:44:10;;;;;;;2.80;2.38;;;;;;;25.87;81.57;96903.88;4958963;29;20624;-62
2023/06/21 09:46:40;;;;;;;4.45;1.65;;;;;;;26.04;80.21;96907.59;4965695;28;20267;-62
2023/06/21 09:49:07;;;;;;;2.10;1.55;;;;;;;26.19;78.09;96913.38;4958852;29;20306;-62
2023/06/21 09:51:34;;;;;;;4.00;1.90;;;;;;;26.36;84.33;96917.03;4958866;29;20211;-62
2023/06/21 09:54:04;;;;;;;2.50;1.98;;;;;;;26.49;86.65;96911.41;4958303;29;20625;-62
2023/06/21 09:56:33;;;;;;;3.67;1.58;;;;;;;26.47;84.74;96920.81;4958338;29;20698;-62
2023/06/21 09:59:01;;;;;;;2.35;1.38;;;;;;;26.50;86.12;96915.75;4959066;29;20218;-62
2023/06/21 10:01:39;;;;;;;1.83;1.60;;;;;;;26.40;84.71;96914.69;4958156;29;20542;-62
2023/06/21 10:04:14;;;;;;;4.63;2.50;;;;;;;26.20;84.06;96923.19;4944991;29;20210;-63
2023/06/21 10:06:48;;;;;;;3.75;2.42;;;;;;;26.05;83.78;96925.47;4945629;28;20206;-63
2023/06/21 10:09:14;;;;;;;1.60;1.50;;;;;;;25.86;83.99;96918.50;4942748;29;20648;-63
2023/06/21 10:11:43;;;;;;;2.95;1.48;;;;;;;25.69;83.90;96929.16;4944537;29;20354;-62
2023/06/21 10:14:18;;;;;;;3.03;1.60;;;;;;;25.65;85.23;96925.25;4942523;29;20636;-62
2023/06/21 10:16:49;;;;;;;3.28;1.95;;;;;;;25.59;87.36;96920.78;4921968;29;20686;-62
2023/06/21 10:19:15;;;;;;;1.92;1.83;;;;;;;25.59;84.87;96921.59;4939227;29;20215;-62
2023/06/21 10:21:43;;;;;;;3.17;2.00;;;;;;;25.61;81.56;96914.06;4943927;29;20214;-62
2023/06/21 10:24:13;;;;;;;1.90;1.75;;;;;;;25.81;80.75;96924.63;4957458;29;20214;-61
2023/06/21 10:26:40;;;;;;;1.75;1.65;;;;;;;25.78;78.71;96918.84;4957969;29;20294;-61
2023/06/21 10:29:08;;;;;;;1.65;1.55;;;;;;;25.85;80.58;96906.84;4954938;29;20214;-62
2023/06/21 10:31:38;;;;;;;1.70;1.60;;;;;;;26.00;81.72;96911.81;4957000;28;20203;-62
2023/06/21 10:34:08;;;;;;;1.80;1.58;;;;;;;26.05;82.38;96907.34;4957757;29;20211;-62
2023/06/21 10:36:37;;;;;;;2.88;2.10;;;;;;;25.89;83.27;96901.78;4940844;29;20225;-62
2023/06/21 10:39:08;;;;;;;3.35;2.20;;;;;;;25.82;78.83;96901.06;4956727;29;20207;-62
2023/06/21 10:41:35;;;;;;;1.98;1.88;;;;;;;25.66;81.81;96892.53;4952985;28;20258;-62
2023/06/21 10:44:02;;;;;;;2.10;1.98;;;;;;;25.45;83.53;96887.63;4958175;29;20218;-61
2023/06/21 10:46:29;;;;;;;2.78;2.22;;;;;;;25.58;86.05;96884.72;4959709;28;20635;-61
2023/06/21 10:48:55;;;;;;;2.75;2.50;;;;;;;25.63;85.07;96879.47;4952624;29;20206;-62
2023/06/21 10:51:24;;;;;;;2.58;2.38;;;;;;;25.81;84.23;96883.13;4978171;29;20207;-63
2023/06/21 10:53:53;;;;;;;1.92;1.83;;;;;;;26.11;84.37;96900.16;4975935;29;20207;-61
2023/06/21 10:56:20;;;;;;;3.00;2.38;;;;;;;26.18;81.35;96895.50;4968135;29;20230;-61
2023/06/21 10:58:49;;;;;;;2.75;2.55;;;;;;;26.34;80.37;96885.81;4957098;29;20222;-62
2023/06/21 11:01:17;;;;;;;2.00;1.90;;;;;;;26.39;76.27;96894.91;4951515;29;20207;-62
2023/06/21 11:03:44;;;;;;;2.60;2.15;;;;;;;26.55;80.28;96886.03;4957698;28;20221;-62
2023/06/21 11:06:26;;;;;;;3.47;2.63;;;;;;;26.61;81.98;96884.25;4948864;29;20632;-63
2023/06/21 11:08:53;;;;;;;2.20;2.08;;;;;;;26.70;78.85;96882.81;4953817;29;20218;-63
2023/06/21 11:11:30;;;;;;;5.45;2.33;;;;;;;26.57;81.08;96883.88;4956836;29;20206;-62
2023/06/21 11:13:57;;;;;;;2.20;2.00;;;;;;;26.44;74.95;96878.72;4921366;29;20247;-62
2023/06/21 11:16:26;;;;;;;2.45;2.25;;;;;;;26.70;78.44;96883.66;4934409;29;20227;-62
2023/06/21 11:18:55;;;;;;;2.67;2.28;;;;;;;26.96;77.14;96876.09;4929793;29;20244;-62
2023/06/21 11:21:44;;;;;;;4.65;2.40;;;;;;;27.26;74.06;96871.25;4939482;29;20272;-62
2023/06/21 11:24:15;;;;;;;4.35;2.55;;;;;;;27.18;65.51;96874.34;4914866;29;20211;-63
2023/06/21 11:26:57;;;;;;;2.30;2.03;;;;;;;27.66;69.15;96882.06;4938561;29;20211;-62